Time;durP1;ratioP1;P1;durP2;ratioP2;P2;SDS_P1;SDS_P2;PMS_P1;PMS_P2;Temp;Humidity;BMP_temperature;BMP_pressure;BME280_temperature;BME280_humidity;BME280_pressure;Samples;Min_cycle;Max_cycle;Signal;HPM_P1;HPM_P2
2023/01/04 00:01:25;;;;;;;2.40;1.55;;;10.50;79.40;;;;;;5057683;28;20033;-90
2023/01/04 00:03:51;;;;;;;2.00;1.52;;;10.50;79.40;;;;;;5041223;28;20484;-91
2023/01/04 00:06:18;;;;;;;2.22;1.60;;;10.50;79.40;;;;;;5040087;28;20385;-90
2023/01/04 00:08:44;;;;;;;2.08;1.88;;;10.50;79.40;;;;;;5056816;28;20061;-89
2023/01/04 00:11:13;;;;;;;1.77;1.40;;;10.50;79.40;;;;;;5059135;28;20057;-90
2023/01/04 00:13:39;;;;;;;1.80;1.60;;;10.50;79.40;;;;;;5065425;28;20029;-88
2023/01/04 00:16:18;;;;;;;1.60;1.50;;;10.50;79.40;;;;;;5039661;28;20061;-90
2023/01/04 00:18:44;;;;;;;1.60;1.40;;;10.50;79.50;;;;;;5056480;28;20028;-89
2023/01/04 00:21:16;;;;;;;2.72;1.75;;;10.50;79.40;;;;;;5056555;28;20021;-89
2023/01/04 00:23:44;;;;;;;2.03;1.60;;;10.50;79.40;;;;;;5056454;28;20477;-89
2023/01/04 00:26:19;;;;;;;1.85;1.60;;;10.60;79.50;;;;;;5055661;28;20079;-89
2023/01/04 00:28:58;;;;;;;2.40;1.60;;;10.50;79.40;;;;;;5056325;28;20031;-90
2023/01/04 00:31:25;;;;;;;2.33;1.50;;;10.60;79.50;;;;;;5073090;28;20378;-88
2023/01/04 00:34:00;;;;;;;1.42;1.33;;;10.60;79.40;;;;;;5073758;28;20099;-89
2023/01/04 00:36:27;;;;;;;1.40;1.30;;;10.60;79.50;;;;;;5056488;28;20043;-89
2023/01/04 00:39:05;;;;;;;3.17;1.60;;;10.60;79.50;;;;;;5039563;28;20033;-88
2023/01/04 00:41:36;;;;;;;1.50;1.40;;;10.60;79.40;;;;;;5056397;28;20029;-89
2023/01/04 00:44:07;;;;;;;2.70;1.48;;;10.60;79.40;;;;;;5072754;28;20029;-87
2023/01/04 00:46:34;;;;;;;1.50;1.40;;;10.60;79.40;;;;;;5056100;28;20043;-88
2023/01/04 00:49:05;;;;;;;1.42;1.33;;;10.60;79.50;;;;;;5039543;28;20025;-88
2023/01/04 00:51:35;;;;;;;1.50;1.40;;;10.60;79.50;;;;;;5055695;28;20033;-86
2023/01/04 00:54:03;;;;;;;2.15;1.48;;;10.60;79.50;;;;;;5038040;28;20048;-86
2023/01/04 00:56:33;;;;;;;1.67;1.50;;;10.60;79.40;;;;;;5056290;28;20040;-87
2023/01/04 00:59:02;;;;;;;2.05;1.60;;;10.70;79.50;;;;;;5055313;28;20045;-85
2023/01/04 01:01:32;;;;;;;1.63;1.40;;;10.60;80.00;;;;;;5055693;28;20095;-86
2023/01/04 01:04:00;;;;;;;1.50;1.40;;;10.70;79.50;;;;;;5039761;28;20095;-86
2023/01/04 01:06:26;;;;;;;2.85;1.52;;;10.70;79.50;;;;;;5056795;28;20029;-86
2023/01/04 01:08:56;;;;;;;1.50;1.40;;;10.70;79.50;;;;;;5055038;28;20025;-86
2023/01/04 01:11:22;;;;;;;1.45;1.30;;;10.70;79.50;;;;;;5055515;28;20104;-86
2023/01/04 01:13:48;;;;;;;2.10;1.55;;;10.70;79.50;;;;;;5055628;28;20056;-86
2023/01/04 01:16:17;;;;;;;1.65;1.40;;;10.70;79.50;;;;;;5038721;28;20481;-86
2023/01/04 01:18:44;;;;;;;1.50;1.40;;;10.70;79.50;;;;;;5055487;28;20055;-85
2023/01/04 01:21:13;;;;;;;2.55;1.52;;;10.70;79.50;;;;;;5038799;28;20039;-85
2023/01/04 01:23:42;;;;;;;1.65;1.40;;;10.70;79.50;;;;;;5055382;28;20078;-86
2023/01/04 01:26:12;;;;;;;1.55;1.40;;;10.70;79.50;;;;;;5055161;28;20370;-87
2023/01/04 01:28:38;;;;;;;2.13;1.45;;;10.70;79.50;;;;;;5054596;28;20029;-87
2023/01/04 01:31:11;;;;;;;1.63;1.40;;;10.80;79.50;;;;;;5038859;28;20043;-86
2023/01/04 01:33:44;;;;;;;2.25;1.50;;;10.80;79.60;;;;;;5072032;28;20566;-86
2023/01/04 01:36:12;;;;;;;1.48;1.30;;;10.80;79.50;;;;;;5055039;28;20033;-86
2023/01/04 01:38:41;;;;;;;1.67;1.20;;;10.70;79.50;;;;;;5038890;28;20032;-86
2023/01/04 01:41:18;;;;;;;1.55;1.30;;;10.80;79.60;;;;;;5055142;28;20078;-86
2023/01/04 01:43:53;;;;;;;1.35;1.20;;;10.80;79.60;;;;;;5071796;28;20035;-86
2023/01/04 01:46:37;;;;;;;;;;;10.80;79.60;;;;;;5055058;28;20032;-86
2023/01/04 01:49:25;;;;;;;3.63;1.52;;;10.80;79.40;;;;;;5055300;28;19908;-85
2023/01/04 01:51:56;;;;;;;1.52;1.20;;;10.80;79.40;;;;;;5054476;28;20029;-86
2023/01/04 01:54:31;;;;;;;1.60;1.27;;;10.80;79.40;;;;;;5055283;28;20106;-87
2023/01/04 01:57:03;;;;;;;1.38;1.27;;;10.80;79.50;;;;;;5055041;28;20128;-87
2023/01/04 01:59:32;;;;;;;1.73;1.40;;;10.80;79.50;;;;;;5054912;28;20048;-86
2023/01/04 02:01:58;;;;;;;1.70;1.45;;;10.80;79.50;;;;;;5071317;28;20036;-87
2023/01/04 02:04:26;;;;;;;1.30;1.20;;;10.80;79.50;;;;;;5054740;28;20041;-87
2023/01/04 02:06:58;;;;;;;1.33;1.20;;;10.80;79.60;;;;;;5038547;28;20041;-87
2023/01/04 02:09:27;;;;;;;1.70;1.25;;;10.80;79.60;;;;;;5054680;28;20033;-87
2023/01/04 02:11:56;;;;;;;1.38;1.25;;;10.90;79.60;;;;;;5054329;28;20021;-87
2023/01/04 02:14:28;;;;;;;1.83;1.30;;;10.90;79.60;;;;;;5054508;28;20416;-86
2023/01/04 02:17:09;;;;;;;1.38;1.27;;;10.90;79.50;;;;;;5073383;28;20083;-88
2023/01/04 02:19:53;;;;;;;2.13;1.27;;;10.90;79.60;;;;;;5055227;28;20036;-87
2023/01/04 02:23:00;;;;;;;1.30;1.20;;;10.90;79.50;;;;;;5054529;28;20040;-86
2023/01/04 02:25:56;;;;;;;1.30;1.23;;;10.90;79.60;;;;;;5054520;28;20053;-86
2023/01/04 02:28:46;;;;;;;2.00;1.50;;;10.90;79.60;;;;;;5055119;28;20036;-85
2023/01/04 02:31:18;;;;;;;1.42;1.30;;;10.90;79.60;;;;;;5054587;28;20432;-87
2023/01/04 02:33:59;;;;;;;1.75;1.25;;;10.90;79.60;;;;;;5054173;28;20036;-86
2023/01/04 02:36:39;;;;;;;1.33;1.20;;;10.90;79.60;;;;;;5054741;28;20036;-88
2023/01/04 02:39:17;;;;;;;1.20;1.10;;;10.90;79.60;;;;;;5071304;28;20040;-87
2023/01/04 02:42:09;;;;;;;1.10;1.10;;;11.00;79.60;;;;;;5070623;28;20457;-86
2023/01/04 02:44:51;;;;;;;1.10;1.10;;;11.00;79.60;;;;;;5037461;28;20056;-87
2023/01/04 02:50:32;;;;;;;1.23;1.17;;;11.00;79.60;;;;;;5053395;28;20060;-87
2023/01/04 02:53:07;;;;;;;1.00;1.00;;;11.00;79.50;;;;;;5053720;28;20036;-86
2023/01/04 02:55:56;;;;;;;1.23;1.13;;;11.00;79.60;;;;;;5053961;28;20044;-87
2023/01/04 02:58:39;;;;;;;1.30;1.20;;;11.00;79.60;;;;;;5070412;28;20048;-87
2023/01/04 03:08:13;;;;;;;1.00;1.00;;;11.00;79.60;;;;;;5054387;28;20036;-87
2023/01/04 03:12:30;;;;;;;1.30;1.17;;;11.00;79.60;;;;;;5070416;28;20021;-87
2023/01/04 03:13:59;;;;;;;1.38;1.27;;;11.00;79.60;;;;;;5054726;28;20037;-88
2023/01/04 03:16:29;;;;;;;1.40;1.30;;;11.10;79.60;;;;;;5071531;28;20037;-87
2023/01/04 03:19:03;;;;;;;1.65;1.30;;;11.10;79.60;;;;;;5040973;28;20052;-87
2023/01/04 03:21:31;;;;;;;1.30;1.20;;;11.00;79.60;;;;;;5073865;28;20110;-86
2023/01/04 03:35:37;;;;;;;1.10;1.10;;;11.10;79.60;;;;;;5057114;28;20029;-88
2023/01/04 03:50:37;;;;;;;1.10;1.10;;;11.20;79.60;;;;;;5055771;28;20107;-89
2023/01/04 03:53:06;;;;;;;1.30;1.20;;;11.20;79.60;;;;;;5040140;28;20091;-88
2023/01/04 03:55:36;;;;;;;1.10;1.10;;;11.20;79.60;;;;;;5073844;28;20037;-88
2023/01/04 03:58:02;;;;;;;1.33;1.23;;;11.20;79.60;;;;;;5040638;28;20041;-88
2023/01/04 04:00:28;;;;;;;1.13;1.10;;;11.20;79.60;;;;;;5056405;28;20129;-88
2023/01/04 04:03:05;;;;;;;1.88;1.30;;;11.20;79.60;;;;;;5056705;28;20058;-87
2023/01/04 04:08:29;;;;;;;1.50;1.40;;;11.30;79.70;;;;;;5059203;28;20028;-88
2023/01/04 04:11:45;;;;;;;1.20;1.10;;;11.30;79.60;;;;;;5056625;28;20021;-88
2023/01/04 04:13:50;;;;;;;1.20;1.10;;;11.30;79.60;;;;;;5056431;28;20036;-88
2023/01/04 04:16:16;;;;;;;1.08;1.00;;;11.30;79.60;;;;;;5056948;28;20033;-88
2023/01/04 04:18:46;;;;;;;1.25;1.17;;;11.40;79.70;;;;;;5073578;28;20051;-89
2023/01/04 04:21:13;;;;;;;1.13;1.13;;;11.40;79.70;;;;;;5073945;28;20417;-87
2023/01/04 04:23:39;;;;;;;1.35;1.20;;;11.40;79.70;;;;;;5058124;28;20028;-89
2023/01/04 04:26:05;;;;;;;1.20;1.10;;;11.40;79.60;;;;;;5040784;28;20025;-88
2023/01/04 04:28:33;;;;;;;1.38;1.27;;;11.40;79.60;;;;;;5055432;28;20115;-89
2023/01/04 04:30:59;;;;;;;1.30;1.30;;;11.40;79.60;;;;;;5056479;28;20029;-88
2023/01/04 04:33:25;;;;;;;1.23;1.10;;;11.40;79.60;;;;;;5057080;28;20533;-89
2023/01/04 04:35:53;;;;;;;1.30;1.20;;;11.40;79.60;;;;;;5076067;28;20079;-90
2023/01/04 04:38:19;;;;;;;1.33;1.17;;;11.50;79.70;;;;;;5058435;28;20482;-90
2023/01/04 04:43:32;;;;;;;1.40;1.20;;;11.50;79.70;;;;;;5057830;28;20461;-90
2023/01/04 04:45:59;;;;;;;1.20;1.10;;;11.50;79.70;;;;;;5056243;28;20067;-89
2023/01/04 04:48:25;;;;;;;1.23;1.23;;;11.50;79.70;;;;;;5055734;28;20060;-89
2023/01/04 04:50:51;;;;;;;1.23;1.13;;;11.50;79.70;;;;;;5056169;28;20043;-91
2023/01/04 04:53:22;;;;;;;1.20;1.10;;;11.50;79.70;;;;;;5039976;28;20025;-89
2023/01/04 04:55:57;;;;;;;1.27;1.23;;;11.60;79.70;;;;;;5056040;28;20072;-90
2023/01/04 04:58:23;;;;;;;;;;;11.50;79.70;;;;;;5072951;28;20052;-90
2023/01/04 05:00:51;;;;;;;1.20;1.20;;;11.60;79.60;;;;;;5072953;28;19946;-91
2023/01/04 05:03:17;;;;;;;1.10;1.10;;;11.60;79.50;;;;;;5056671;28;20024;-91
2023/01/04 05:05:46;;;;;;;2.45;1.48;;;11.60;79.60;;;;;;5056331;28;20060;-90
2023/01/04 05:08:12;;;;;;;1.33;1.20;;;11.60;79.70;;;;;;5039547;28;20013;-90
2023/01/04 05:10:41;;;;;;;1.25;1.25;;;11.60;79.70;;;;;;5055627;28;20052;-90
2023/01/04 05:13:19;;;;;;;1.95;1.40;;;11.60;79.70;;;;;;5023101;28;20044;-91
2023/01/04 05:15:46;;;;;;;;;;;11.70;79.70;;;;;;5039497;28;20036;-90
2023/01/04 05:18:15;;;;;;;1.35;1.25;;;11.60;79.50;;;;;;5055363;28;19995;-89
2023/01/04 05:20:41;;;;;;;1.10;1.10;;;11.70;79.50;;;;;;5055587;28;20052;-89
2023/01/04 05:23:09;;;;;;;1.40;1.30;;;11.70;79.60;;;;;;5072484;28;20021;-89
2023/01/04 05:25:38;;;;;;;1.25;1.20;;;11.60;79.60;;;;;;5039368;28;20061;-89
2023/01/04 05:28:10;;;;;;;1.30;1.20;;;11.70;79.70;;;;;;5073243;28;20024;-89
2023/01/04 05:30:54;;;;;;;1.40;1.30;;;11.70;79.70;;;;;;5057885;28;20021;-90
2023/01/04 05:33:28;;;;;;;1.10;1.10;;;11.70;79.70;;;;;;5057175;28;20028;-88
2023/01/04 05:35:56;;;;;;;1.35;1.25;;;11.70;79.70;;;;;;5057355;28;20231;-89
2023/01/04 05:38:39;;;;;;;1.20;1.10;;;11.80;79.70;;;;;;5056717;28;20032;-90
2023/01/04 05:42:24;;;;;;;1.25;1.15;;;11.80;79.70;;;;;;5055299;28;20067;-89
2023/01/04 05:43:54;;;;;;;1.20;1.20;;;11.80;79.70;;;;;;5055477;28;20032;-90
2023/01/04 05:46:21;;;;;;;1.30;1.20;;;11.80;79.70;;;;;;5088374;28;20099;-90
2023/01/04 05:48:50;;;;;;;1.23;1.20;;;11.80;79.70;;;;;;5054585;28;20036;-90
2023/01/04 05:51:16;;;;;;;1.73;1.20;;;11.80;79.70;;;;;;5054565;28;20017;-90
2023/01/04 05:53:42;;;;;;;1.20;1.20;;;11.80;79.70;;;;;;5071509;28;20492;-90
2023/01/04 05:56:08;;;;;;;1.20;1.13;;;11.90;79.70;;;;;;5071860;28;20029;-90
2023/01/04 05:58:34;;;;;;;1.33;1.23;;;11.90;79.70;;;;;;5054516;28;20505;-89
2023/01/04 06:01:00;;;;;;;1.40;1.30;;;11.90;79.70;;;;;;5071807;28;20029;-89
2023/01/04 06:03:26;;;;;;;1.38;1.27;;;11.90;79.70;;;;;;5055132;28;20420;-89
2023/01/04 06:05:55;;;;;;;1.35;1.25;;;11.90;79.70;;;;;;5055554;28;20029;-89
2023/01/04 06:08:21;;;;;;;1.50;1.33;;;11.90;79.70;;;;;;5054330;28;20473;-88
2023/01/04 06:10:53;;;;;;;1.40;1.30;;;11.90;79.70;;;;;;5054925;28;20044;-88
2023/01/04 06:13:19;;;;;;;1.25;1.15;;;12.00;79.80;;;;;;5054763;28;20021;-89
2023/01/04 06:15:45;;;;;;;1.40;1.30;;;11.90;79.70;;;;;;5038186;28;20064;-88
2023/01/04 06:18:11;;;;;;;1.30;1.20;;;12.00;79.70;;;;;;5071474;28;20450;-88
2023/01/04 06:20:37;;;;;;;1.40;1.30;;;11.90;79.70;;;;;;5070855;28;20021;-86
2023/01/04 06:23:08;;;;;;;1.38;1.27;;;12.00;79.70;;;;;;5037952;28;20473;-89
2023/01/04 06:25:34;;;;;;;1.40;1.30;;;12.00;79.70;;;;;;5071785;28;20052;-88
2023/01/04 06:28:03;;;;;;;1.30;1.20;;;12.00;79.70;;;;;;5071102;28;20021;-88
2023/01/04 06:30:29;;;;;;;1.77;1.50;;;12.00;79.70;;;;;;5040209;28;20124;-88
2023/01/04 06:32:55;;;;;;;1.30;1.20;;;12.10;79.70;;;;;;5059050;28;20035;-87
2023/01/04 06:35:21;;;;;;;1.40;1.30;;;12.10;79.70;;;;;;5054112;28;20029;-88
2023/01/04 06:37:47;;;;;;;1.40;1.30;;;12.10;79.70;;;;;;5054451;28;20025;-86
2023/01/04 06:40:13;;;;;;;1.30;1.20;;;12.10;79.70;;;;;;5054669;28;20025;-87
2023/01/04 06:42:44;;;;;;;1.40;1.30;;;12.10;79.70;;;;;;5054572;28;20495;-88
2023/01/04 06:45:11;;;;;;;1.00;1.00;;;12.10;79.70;;;;;;5039147;28;20040;-89
2023/01/04 06:47:40;;;;;;;1.42;1.33;;;12.10;79.70;;;;;;5054413;28;20021;-88
2023/01/04 06:50:07;;;;;;;1.10;1.10;;;12.10;79.70;;;;;;5054539;28;20029;-90
2023/01/04 06:52:42;;;;;;;1.30;1.20;;;12.10;79.70;;;;;;5087665;28;20442;-88
2023/01/04 06:55:13;;;;;;;1.48;1.30;;;12.20;79.70;;;;;;5058672;28;20031;-89
2023/01/04 06:57:41;;;;;;;1.30;1.20;;;12.20;79.70;;;;;;5091576;28;20128;-90
2023/01/04 07:00:08;;;;;;;1.30;1.20;;;12.20;79.70;;;;;;5058348;28;20461;-88
2023/01/04 07:02:39;;;;;;;1.30;1.20;;;12.20;79.80;;;;;;5058362;28;20033;-89
2023/01/04 07:05:06;;;;;;;1.58;1.30;;;12.20;79.70;;;;;;5092228;28;20067;-88
2023/01/04 07:07:35;;;;;;;1.30;1.20;;;12.20;79.70;;;;;;5075270;28;20075;-88
2023/01/04 07:10:04;;;;;;;1.23;1.17;;;12.20;79.70;;;;;;5057908;28;20021;-88
2023/01/04 07:12:33;;;;;;;1.10;1.10;;;12.20;79.70;;;;;;5058003;28;20017;-89
2023/01/04 07:15:05;;;;;;;1.10;1.10;;;12.20;79.60;;;;;;5074068;28;20121;-88
2023/01/04 07:17:40;;;;;;;1.48;1.38;;;12.30;79.70;;;;;;5074594;28;20104;-89
2023/01/04 07:20:09;;;;;;;1.98;1.48;;;12.30;79.70;;;;;;5057896;28;20119;-89
2023/01/04 07:22:35;;;;;;;2.03;1.33;;;12.30;79.70;;;;;;5041857;28;20021;-88
2023/01/04 07:25:01;;;;;;;1.50;1.40;;;12.30;79.70;;;;;;5074408;28;20469;-88
2023/01/04 07:27:26;;;;;;;1.30;1.20;;;12.30;79.70;;;;;;5058579;28;20029;-87
2023/01/04 07:29:55;;;;;;;1.83;1.25;;;12.40;79.70;;;;;;5041139;28;20044;-88
2023/01/04 07:32:24;;;;;;;2.00;1.30;;;12.40;79.70;;;;;;5057503;28;20055;-88
2023/01/04 07:34:53;;;;;;;1.42;1.33;;;12.30;79.60;;;;;;5057911;28;20037;-87
2023/01/04 07:37:27;;;;;;;1.42;1.33;;;12.40;79.70;;;;;;5058879;28;20033;-87
2023/01/04 07:39:56;;;;;;;1.25;1.23;;;12.40;79.70;;;;;;5075149;28;20115;-87
2023/01/04 07:42:23;;;;;;;1.40;1.30;;;12.40;79.60;;;;;;5074260;28;20061;-87
2023/01/04 07:44:50;;;;;;;1.40;1.30;;;12.40;79.70;;;;;;5092041;28;20056;-89
2023/01/04 07:47:23;;;;;;;1.50;1.30;;;12.40;79.70;;;;;;5043449;28;20029;-92
2023/01/04 07:49:49;;;;;;;1.27;1.17;;;12.40;79.60;;;;;;5063147;28;20410;-91
2023/01/04 07:52:15;;;;;;;1.25;1.20;;;12.50;79.70;;;;;;5075132;28;20083;-89
2023/01/04 07:54:44;;;;;;;1.40;1.30;;;12.50;79.70;;;;;;5041104;28;20036;-89
2023/01/04 07:57:13;;;;;;;1.20;1.20;;;12.50;79.70;;;;;;5058774;28;20068;-89
2023/01/04 07:59:41;;;;;;;1.02;1.02;;;12.50;79.70;;;;;;5059137;28;20599;-91
2023/01/04 08:02:10;;;;;;;1.27;1.17;;;12.50;79.70;;;;;;5058372;28;20025;-90
2023/01/04 08:04:36;;;;;;;1.40;1.30;;;12.50;79.70;;;;;;5058010;28;20025;-91
2023/01/04 08:07:02;;;;;;;1.40;1.30;;;12.50;79.60;;;;;;5058461;28;20033;-89
2023/01/04 08:09:28;;;;;;;1.45;1.27;;;12.50;79.60;;;;;;5057486;28;20079;-90
2023/01/04 08:11:54;;;;;;;1.38;1.25;;;12.60;79.70;;;;;;5040412;28;20059;-90
2023/01/04 08:14:20;;;;;;;1.48;1.20;;;12.60;79.70;;;;;;5057347;28;20025;-92
2023/01/04 08:16:49;;;;;;;1.40;1.20;;;12.60;79.70;;;;;;5056832;28;20369;-89
2023/01/04 08:19:18;;;;;;;1.33;1.23;;;12.60;79.60;;;;;;5056694;28;20588;-90
2023/01/04 08:21:47;;;;;;;1.25;1.15;;;12.60;79.60;;;;;;5057379;28;20032;-88
2023/01/04 08:24:16;;;;;;;1.30;1.20;;;12.60;79.60;;;;;;5056556;28;20036;-90
2023/01/04 08:26:45;;;;;;;1.48;1.25;;;12.60;79.60;;;;;;5056426;28;20059;-88
2023/01/04 08:29:11;;;;;;;1.30;1.20;;;12.60;79.60;;;;;;5072950;28;20034;-90
2023/01/04 08:31:38;;;;;;;1.73;1.35;;;12.70;79.60;;;;;;5056351;28;20021;-89
2023/01/04 08:34:07;;;;;;;1.48;1.30;;;12.70;79.60;;;;;;5056549;28;20025;-91
2023/01/04 08:36:42;;;;;;;1.38;1.27;;;12.70;79.60;;;;;;5056257;28;20083;-89
2023/01/04 08:39:11;;;;;;;2.08;1.30;;;12.70;79.60;;;;;;5057799;28;20024;-92
2023/01/04 08:41:49;;;;;;;1.50;1.40;;;12.70;79.60;;;;;;5023141;28;20436;-85
2023/01/04 08:44:20;;;;;;;1.38;1.27;;;12.70;79.60;;;;;;5056676;28;20055;-91
2023/01/04 08:46:50;;;;;;;1.45;1.35;;;12.80;79.60;;;;;;5040805;28;20052;-90
2023/01/04 08:49:19;;;;;;;1.40;1.30;;;12.70;79.60;;;;;;5056869;28;20029;-88
2023/01/04 08:51:45;;;;;;;2.17;1.30;;;12.80;79.60;;;;;;5038673;28;20021;-90
2023/01/04 08:54:25;;;;;;;1.38;1.27;;;12.80;79.60;;;;;;5055477;28;20021;-90
2023/01/04 08:56:51;;;;;;;1.48;1.30;;;12.80;79.60;;;;;;5056081;28;20040;-90
2023/01/04 08:59:19;;;;;;;1.60;1.50;;;12.80;79.60;;;;;;5039926;28;20490;-91
2023/01/04 09:01:45;;;;;;;1.88;1.50;;;12.80;79.60;;;;;;5057665;28;20060;-92
2023/01/04 09:04:11;;;;;;;1.48;1.40;;;12.80;79.60;;;;;;5090018;28;20029;-92
2023/01/04 09:06:40;;;;;;;1.40;1.30;;;12.80;79.60;;;;;;5055801;28;20031;-90
2023/01/04 09:09:06;;;;;;;1.20;1.20;;;12.80;79.60;;;;;;5072321;28;20029;-90
2023/01/04 09:11:35;;;;;;;1.40;1.30;;;12.90;79.70;;;;;;5039836;28;20090;-88
2023/01/04 09:14:22;;;;;;;1.40;1.30;;;12.90;79.60;;;;;;5072502;28;20059;-93
2023/01/04 09:16:50;;;;;;;1.20;1.10;;;12.80;79.60;;;;;;5057295;28;20032;-91
2023/01/04 09:19:26;;;;;;;1.48;1.38;;;12.90;79.60;;;;;;5040154;28;20170;-90
2023/01/04 09:22:04;;;;;;;1.40;1.30;;;12.90;79.70;;;;;;5056430;28;20068;-93
2023/01/04 09:24:41;;;;;;;1.35;1.25;;;12.90;79.60;;;;;;5057120;28;20116;-92
2023/01/04 09:27:07;;;;;;;1.10;1.10;;;12.90;79.50;;;;;;5058769;28;20091;-90
2023/01/04 09:29:32;;;;;;;1.42;1.33;;;12.90;79.60;;;;;;5091295;28;20095;-91
2023/01/04 09:32:01;;;;;;;1.40;1.30;;;12.90;79.60;;;;;;5057497;28;20036;-92
2023/01/04 09:34:30;;;;;;;1.30;1.20;;;13.00;79.60;;;;;;5058234;28;20025;-92
2023/01/04 09:36:56;;;;;;;1.20;1.17;;;12.90;79.60;;;;;;5058275;28;20083;-93
2023/01/04 09:39:39;;;;;;;;;;;;;;;;;;;;;
2023/01/04 09:42:33;;;;;;;1.70;1.38;;;13.00;80.30;;;;;;5042784;28;20063;-93
2023/01/04 09:45:19;;;;;;;1.33;1.15;;;13.00;79.60;;;;;;5074736;28;20437;-92
2023/01/04 09:47:57;;;;;;;2.10;1.40;;;13.00;79.60;;;;;;5073960;28;20035;-92
2023/01/04 09:50:51;;;;;;;1.30;1.20;;;13.10;79.60;;;;;;5074044;28;20037;-93
2023/01/04 09:53:51;;;;;;;1.33;1.23;;;13.10;79.70;;;;;;5056929;28;20033;-91
2023/01/04 09:56:32;;;;;;;1.33;1.20;;;13.10;79.60;;;;;;5057510;28;20055;-92
2023/01/04 09:59:01;;;;;;;1.38;1.13;;;13.10;79.70;;;;;;5057167;28;20127;-91
2023/01/04 10:01:53;;;;;;;1.20;1.10;;;13.10;79.70;;;;;;5057267;28;20120;-93
2023/01/04 10:04:43;;;;;;;1.20;1.10;;;13.10;79.70;;;;;;5058337;28;20028;-91
2023/01/04 10:07:34;;;;;;;1.52;1.27;;;13.10;79.70;;;;;;5056809;28;20082;-91
2023/01/04 10:10:01;;;;;;;2.00;1.40;;;13.10;79.70;;;;;;5040207;28;20036;-91
2023/01/04 10:12:27;;;;;;;1.48;1.38;;;13.10;79.60;;;;;;5057049;28;20028;-90
2023/01/04 10:15:30;;;;;;;1.30;1.20;;;13.10;79.60;;;;;;5056551;28;20112;-92
2023/01/04 10:18:50;;;;;;;1.30;1.20;;;13.20;79.80;;;;;;5056934;28;20101;-92
2023/01/04 10:21:33;;;;;;;1.70;1.13;;;13.20;79.70;;;;;;5057432;28;20108;-89
2023/01/04 10:24:28;;;;;;;1.38;1.20;;;13.20;79.70;;;;;;5054365;28;20539;-89
2023/01/04 10:27:01;;;;;;;1.63;1.52;;;13.20;79.70;;;;;;5070962;28;20037;-90
2023/01/04 10:29:27;;;;;;;1.30;1.20;;;13.20;79.70;;;;;;5071491;28;20144;-90
2023/01/04 10:32:16;;;;;;;2.45;1.30;;;13.20;79.70;;;;;;5055363;28;20061;-91
2023/01/04 10:34:48;;;;;;;1.10;1.10;;;13.20;79.80;;;;;;5051838;28;20505;-91
2023/01/04 10:37:27;;;;;;;1.35;1.25;;;13.30;79.70;;;;;;5037657;28;20053;-87
2023/01/04 10:39:59;;;;;;;1.40;1.30;;;13.30;79.70;;;;;;5054064;28;20035;-85
2023/01/04 10:42:37;;;;;;;1.35;1.20;;;13.30;79.70;;;;;;5038483;28;20089;-90
2023/01/04 10:45:13;;;;;;;1.27;1.17;;;13.30;79.70;;;;;;5054887;28;20033;-92
2023/01/04 10:47:42;;;;;;;1.83;1.42;;;13.30;79.70;;;;;;5053228;28;20036;-91
2023/01/04 10:50:34;;;;;;;1.38;1.27;;;13.30;79.70;;;;;;5053003;28;20021;-92
2023/01/04 10:53:19;;;;;;;1.30;1.20;;;13.40;79.80;;;;;;5056866;28;20035;-90
2023/01/04 10:56:08;;;;;;;1.10;1.10;;;13.40;79.70;;;;;;5063694;28;20033;-91
2023/01/04 10:58:55;;;;;;;1.23;1.20;;;13.40;79.80;;;;;;5070173;28;20041;-91
2023/01/04 11:02:05;;;;;;;1.40;1.25;;;13.40;79.70;;;;;;5069990;28;20025;-91
2023/01/04 11:04:43;;;;;;;1.30;1.20;;;13.40;79.80;;;;;;5035457;28;20119;-92
2023/01/04 11:07:14;;;;;;;1.00;1.00;;;13.40;79.70;;;;;;5019025;28;20037;-91
2023/01/04 11:09:56;;;;;;;1.20;1.10;;;13.40;79.70;;;;;;5045280;28;20118;-91
2023/01/04 11:12:22;;;;;;;1.45;1.33;;;13.40;79.80;;;;;;5070566;28;20036;-91
2023/01/04 11:14:51;;;;;;;1.20;1.20;;;13.40;79.70;;;;;;5086767;28;20029;-90
2023/01/04 11:17:20;;;;;;;1.33;1.20;;;13.50;79.80;;;;;;5052683;28;20048;-92
2023/01/04 11:19:49;;;;;;;1.30;1.20;;;13.50;79.70;;;;;;5052694;28;20032;-93
2023/01/04 11:22:19;;;;;;;1.33;1.15;;;13.50;79.80;;;;;;5052746;28;20056;-91
2023/01/04 11:24:50;;;;;;;1.20;1.10;;;13.50;80.40;;;;;;5053258;28;20052;-92
2023/01/04 11:27:21;;;;;;;1.55;1.20;;;13.50;79.70;;;;;;5053704;28;20029;-92
2023/01/04 11:30:02;;;;;;;1.27;1.17;;;13.50;79.70;;;;;;5080965;28;20052;-90
2023/01/04 11:32:38;;;;;;;1.33;1.17;;;13.50;79.80;;;;;;5071407;28;20029;-92
2023/01/04 11:35:04;;;;;;;1.88;1.10;;;13.50;79.70;;;;;;5052670;28;20021;-92
2023/01/04 11:37:36;;;;;;;1.20;1.20;;;13.60;79.70;;;;;;5053450;28;20028;-91
2023/01/04 11:40:14;;;;;;;1.00;1.00;;;13.60;79.70;;;;;;5056114;28;20021;-92
2023/01/04 11:42:47;;;;;;;1.10;1.10;;;13.60;79.80;;;;;;5056559;28;20025;-91
2023/01/04 11:45:24;;;;;;;1.25;1.17;;;13.60;79.70;;;;;;5056811;28;20048;-91
2023/01/04 11:47:56;;;;;;;1.30;1.20;;;13.60;80.40;;;;;;5073176;28;20036;-90
2023/01/04 11:50:36;;;;;;;1.20;1.10;;;13.60;79.70;;;;;;5056114;28;20025;-91
2023/01/04 11:53:29;;;;;;;1.00;1.00;;;13.70;79.80;;;;;;5056398;28;20036;-89
2023/01/04 11:56:17;;;;;;;1.20;1.20;;;13.70;79.80;;;;;;5055530;28;20037;-92
2023/01/04 11:59:11;;;;;;;1.25;1.10;;;13.70;79.80;;;;;;5073424;28;20048;-92
2023/01/04 12:01:48;;;;;;;1.33;1.20;;;13.70;79.80;;;;;;5056946;28;20025;-92
2023/01/04 12:04:21;;;;;;;1.00;1.00;;;13.70;79.80;;;;;;5056270;28;20110;-91
2023/01/04 12:06:52;;;;;;;1.00;1.00;;;13.70;79.80;;;;;;5056043;28;20029;-92
2023/01/04 12:09:19;;;;;;;1.27;1.00;;;13.70;79.80;;;;;;5056356;28;20033;-91
2023/01/04 12:11:51;;;;;;;1.02;1.02;;;13.70;79.80;;;;;;5056882;28;20036;-91
2023/01/04 12:14:24;;;;;;;0.98;0.98;;;13.70;79.70;;;;;;5056712;28;20024;-88
2023/01/04 12:16:55;;;;;;;1.00;1.00;;;13.70;79.80;;;;;;5055684;28;20064;-89
2023/01/04 12:19:22;;;;;;;1.13;1.13;;;13.80;79.80;;;;;;5056087;28;20025;-92
2023/01/04 12:21:51;;;;;;;1.10;1.00;;;13.80;79.70;;;;;;5072354;28;20053;-92
2023/01/04 12:24:30;;;;;;;1.05;1.05;;;13.80;79.80;;;;;;5055969;28;20021;-93
2023/01/04 12:26:57;;;;;;;0.90;0.90;;;13.80;79.80;;;;;;5056030;28;20031;-93
2023/01/04 12:29:22;;;;;;;1.10;1.10;;;13.80;79.70;;;;;;5039315;28;20036;-90
2023/01/04 12:32:12;;;;;;;1.20;1.10;;;13.80;79.70;;;;;;5056725;28;20369;-91
2023/01/04 12:34:43;;;;;;;0.90;0.90;;;13.80;79.70;;;;;;5056126;28;20052;-92
2023/01/04 12:37:30;;;;;;;1.38;1.10;;;13.90;79.80;;;;;;5055586;28;20041;-93
2023/01/04 12:39:56;;;;;;;1.00;1.00;;;13.80;79.70;;;;;;5055675;28;20040;-92
2023/01/04 12:42:25;;;;;;;1.20;1.10;;;13.90;79.70;;;;;;5071727;28;20047;-93
2023/01/04 12:44:51;;;;;;;1.27;1.17;;;13.80;79.70;;;;;;5055337;28;20029;-92
2023/01/04 12:50:11;;;;;;;1.30;1.10;;;13.90;79.70;;;;;;5055217;28;20032;-91
2023/01/04 12:52:44;;;;;;;1.20;1.10;;;13.90;79.70;;;;;;5055135;28;20025;-91
2023/01/04 12:55:31;;;;;;;1.35;1.25;;;13.90;79.70;;;;;;5054867;28;20074;-93
2023/01/04 12:58:02;;;;;;;1.77;1.15;;;13.90;79.70;;;;;;5054515;28;20053;-93
2023/01/04 13:00:53;;;;;;;1.08;1.05;;;13.90;79.60;;;;;;5071946;28;20040;-92
2023/01/04 13:03:23;;;;;;;1.30;1.20;;;14.00;79.80;;;;;;5055659;28;20051;-93
2023/01/04 13:05:49;;;;;;;1.40;1.30;;;14.00;79.70;;;;;;5056271;28;20036;-94
2023/01/04 13:08:15;;;;;;;1.40;1.30;;;14.00;79.70;;;;;;5057797;28;20452;-93
2023/01/04 13:10:55;;;;;;;1.13;1.05;;;14.00;79.70;;;;;;5080138;28;20377;-91
2023/01/04 13:13:20;;;;;;;1.17;1.15;;;14.00;79.80;;;;;;5039083;28;20057;-92
2023/01/04 13:15:52;;;;;;;1.23;1.20;;;14.00;79.70;;;;;;5054924;28;20056;-92
2023/01/04 13:18:42;;;;;;;1.00;1.00;;;14.10;79.70;;;;;;5054951;28;20541;-92
2023/01/04 13:21:32;;;;;;;1.45;1.35;;;14.00;79.70;;;;;;5060309;28;20104;-91
2023/01/04 13:24:34;;;;;;;;;;;;;;;;;;;;;
2023/01/04 13:27:36;;;;;;;1.33;1.23;;;14.10;79.70;;;;;;5058298;28;20036;-92
2023/01/04 13:30:13;;;;;;;;;;;14.10;79.60;;;;;;5057690;28;20067;-93
2023/01/04 13:32:51;;;;;;;1.08;1.08;;;14.10;79.50;;;;;;5058807;28;19955;-92
2023/01/04 13:35:31;;;;;;;1.35;1.10;;;14.10;79.40;;;;;;5090898;28;20083;-91
2023/01/04 13:38:10;;;;;;;1.48;1.20;;;14.10;79.50;;;;;;5057521;28;20033;-91
2023/01/04 13:40:47;;;;;;;1.40;1.30;;;14.10;79.60;;;;;;5071739;28;20024;-91
2023/01/04 13:43:34;;;;;;;1.40;1.25;;;14.10;79.60;;;;;;5054234;28;20029;-92
2023/01/04 13:46:20;;;;;;;1.20;1.20;;;14.20;79.70;;;;;;5055036;28;20083;-89
2023/01/04 13:48:49;;;;;;;1.35;1.20;;;14.20;79.60;;;;;;5054838;28;20445;-91
2023/01/04 13:51:16;;;;;;;1.35;1.25;;;14.20;79.60;;;;;;5053935;28;20469;-92
2023/01/04 13:53:57;;;;;;;1.35;1.25;;;14.20;79.60;;;;;;5054360;28;20078;-92
2023/01/04 13:56:29;;;;;;;1.58;1.30;;;14.20;79.70;;;;;;5070774;28;20025;-92
2023/01/04 13:59:02;;;;;;;1.27;1.17;;;14.20;79.60;;;;;;5054229;28;20145;-91
2023/01/04 14:01:40;;;;;;;1.58;1.40;;;14.20;79.60;;;;;;5037271;28;20036;-92
2023/01/04 14:04:25;;;;;;;1.70;1.60;;;14.20;79.60;;;;;;5054085;28;20120;-86